createdAt,value
2019-05-14T00:02:32.827Z,93.00
2019-05-14T00:08:34.543Z,93.30
2019-05-14T00:14:40.051Z,93.30
2019-05-14T00:20:41.785Z,93.60
2019-05-14T00:26:42.885Z,93.40
2019-05-14T00:32:44.929Z,93.40
2019-05-14T00:38:46.528Z,93.50
2019-05-14T00:44:57.741Z,93.80
2019-05-14T00:50:55.319Z,94.90
2019-05-14T00:56:56.958Z,94.80
2019-05-14T01:02:58.824Z,95.20
2019-05-14T01:09:01.364Z,95.10
2019-05-14T01:15:09.753Z,94.70
2019-05-14T01:21:11.664Z,94.90
2019-05-14T01:27:14.464Z,95.50
2019-05-14T01:33:16.200Z,96.10
2019-05-14T01:39:17.883Z,96.60
2019-05-14T01:45:25.158Z,96.90
2019-05-14T01:51:22.930Z,97.10
2019-05-14T01:57:24.435Z,96.90
2019-05-14T02:03:28.288Z,96.50
2019-05-14T02:09:31.091Z,96.70
2019-05-14T02:15:39.050Z,96.50
2019-05-14T02:21:36.270Z,96.50
2019-05-14T02:27:37.783Z,96.90
2019-05-14T02:33:40.275Z,96.60
2019-05-14T02:39:41.709Z,97.20
2019-05-14T02:46:00.865Z,97.40
2019-05-14T02:51:50.259Z,97.50
2019-05-14T02:57:50.588Z,97.70
2019-05-14T03:03:52.209Z,97.40
2019-05-14T03:09:54.000Z,97.30
2019-05-14T03:15:55.487Z,97.20
2019-05-14T03:21:59.989Z,97.40
2019-05-14T03:28:01.256Z,97.30
2019-05-14T03:34:03.932Z,97.20
2019-05-14T03:40:08.946Z,97.90
2019-05-14T03:46:10.555Z,98.10
2019-05-14T03:52:12.301Z,98.40
2019-05-14T03:58:14.359Z,98.30
2019-05-14T04:04:19.154Z,98.20
2019-05-14T04:10:20.694Z,98.00
2019-05-14T04:16:29.115Z,97.80
2019-05-14T04:22:31.769Z,97.70
2019-05-14T04:28:35.096Z,97.20
2019-05-14T04:34:39.889Z,96.90
2019-05-14T04:40:41.717Z,96.90
2019-05-14T04:46:49.292Z,96.90
2019-05-14T04:52:51.342Z,97.20
2019-05-14T04:58:53.003Z,95.40
2019-05-14T05:04:54.674Z,94.50
2019-05-14T05:10:56.188Z,93.60
2019-05-14T05:16:59.785Z,93.40
2019-05-14T05:23:01.118Z,93.40
2019-05-14T05:29:07.275Z,93.30
2019-05-14T05:35:09.444Z,93.70
2019-05-14T05:41:11.399Z,93.70
2019-05-14T05:47:12.925Z,93.50
2019-05-14T05:53:14.437Z,91.70
2019-05-14T05:59:18.776Z,88.10
2019-05-14T06:05:20.737Z,85.00
2019-05-14T06:11:22.291Z,87.00
2019-05-14T06:17:23.711Z,86.10
2019-05-14T06:23:25.243Z,83.20
2019-05-14T06:29:28.807Z,85.50
2019-05-14T06:35:30.306Z,85.90
2019-05-14T06:41:31.827Z,86.30
2019-05-14T06:47:33.335Z,86.80
2019-05-14T06:53:34.949Z,85.30
2019-05-14T06:59:38.093Z,82.80
2019-05-14T07:05:39.712Z,82.50
2019-05-14T07:11:41.198Z,82.80
2019-05-14T07:17:44.958Z,81.50
2019-05-14T07:23:48.842Z,75.60
2019-05-14T07:29:52.794Z,74.80
2019-05-14T07:35:54.294Z,76.80
2019-05-14T07:41:55.865Z,71.40
2019-05-14T07:47:58.317Z,71.80
2019-05-14T07:53:59.918Z,68.00
2019-05-14T08:00:02.959Z,64.70
2019-05-14T08:06:04.512Z,66.40
2019-05-14T08:12:05.959Z,62.30
2019-05-14T08:18:08.189Z,60.60
2019-05-14T08:24:09.861Z,61.50
2019-05-14T08:30:11.985Z,60.50
2019-05-14T08:36:13.539Z,61.60
2019-05-14T08:42:15.006Z,60.50
2019-05-14T08:48:19.042Z,62.20
2019-05-14T08:54:22.218Z,61.00
2019-05-14T09:00:23.910Z,62.70
2019-05-14T09:06:25.455Z,56.60
2019-05-14T09:12:28.119Z,60.00
2019-05-14T09:18:29.598Z,57.80
2019-05-14T09:24:31.121Z,52.40
2019-05-14T09:30:32.788Z,49.50
2019-05-14T09:36:34.269Z,53.90
2019-05-14T09:42:35.794Z,52.90
2019-05-14T09:48:38.055Z,52.40
2019-05-14T09:54:43.871Z,52.70
2019-05-14T10:00:43.327Z,54.90
2019-05-14T10:06:44.925Z,49.70
2019-05-14T10:12:53.937Z,49.30
2019-05-14T10:18:52.733Z,47.80
2019-05-14T10:24:53.589Z,50.40
2019-05-14T10:30:55.495Z,54.70
2019-05-14T10:36:59.106Z,49.90
2019-05-14T10:43:00.217Z,50.30
2019-05-14T10:49:16.534Z,49.80
2019-05-14T10:55:08.011Z,47.90
2019-05-14T11:01:11.481Z,44.30
2019-05-14T11:07:13.022Z,40.60
2019-05-14T11:13:14.470Z,43.10
2019-05-14T11:19:15.911Z,44.20
2019-05-14T11:25:19.616Z,47.70
2019-05-14T11:31:20.959Z,46.60
2019-05-14T11:37:22.409Z,45.80
2019-05-14T11:43:28.494Z,43.50
2019-05-14T11:49:30.339Z,48.50
2019-05-14T11:55:31.933Z,44.10
2019-05-14T12:01:33.671Z,45.00
2019-05-14T12:07:35.109Z,43.80
2019-05-14T12:13:39.197Z,44.40
2019-05-14T12:19:43.354Z,46.60
2019-05-14T12:25:43.768Z,44.80
2019-05-14T12:31:45.222Z,46.10
2019-05-14T12:37:46.642Z,43.40
2019-05-14T12:43:48.197Z,40.80
2019-05-14T12:49:49.742Z,39.70
2019-05-14T12:55:51.283Z,42.70
2019-05-14T13:01:58.500Z,43.30
2019-05-14T13:07:59.217Z,39.40
2019-05-14T13:14:00.664Z,42.30
2019-05-14T13:20:04.977Z,43.30
2019-05-14T13:26:10.212Z,42.30
2019-05-14T13:32:12.362Z,42.30
2019-05-14T13:38:14.346Z,40.60
2019-05-14T13:44:24.236Z,41.00
2019-05-14T13:50:20.362Z,42.40
2019-05-14T13:56:21.997Z,42.60
2019-05-14T14:02:23.447Z,43.10
2019-05-14T14:08:29.286Z,44.70
2019-05-14T14:14:30.918Z,42.30
2019-05-14T14:20:33.418Z,41.00
2019-05-14T14:26:35.197Z,40.70
2019-05-14T14:32:36.848Z,41.60
2019-05-14T14:38:40.131Z,41.60
2019-05-14T14:44:41.794Z,43.40
2019-05-14T14:50:43.318Z,44.50
2019-05-14T14:56:48.546Z,44.80
2019-05-14T15:02:49.877Z,42.70
2019-05-14T15:08:51.370Z,38.80
2019-05-14T15:14:52.906Z,37.10
2019-05-14T15:20:54.424Z,38.70
2019-05-14T15:27:06.498Z,38.10
2019-05-14T15:33:00.231Z,34.60
2019-05-14T15:39:03.844Z,34.20
2019-05-14T15:45:08.853Z,36.50
2019-05-14T15:51:15.012Z,34.20
2019-05-14T15:57:14.766Z,35.50
2019-05-14T16:03:18.634Z,38.50
2019-05-14T16:09:19.863Z,37.10
2019-05-14T16:15:22.509Z,37.60
2019-05-14T16:21:24.035Z,37.10
2019-05-14T16:27:25.664Z,33.30
2019-05-14T16:33:29.134Z,32.10
2019-05-14T16:39:30.668Z,38.40
2019-05-14T16:45:32.154Z,41.30
2019-05-14T16:51:33.721Z,38.60
2019-05-14T16:57:35.559Z,33.10
2019-05-14T17:03:39.848Z,32.20
2019-05-14T17:09:40.521Z,32.70
2019-05-14T17:15:41.954Z,37.50
2019-05-14T17:21:43.465Z,33.50
2019-05-14T17:27:45.222Z,33.90
2019-05-14T17:33:49.017Z,38.20
2019-05-14T17:39:50.505Z,37.90
2019-05-14T17:45:52.451Z,37.70
2019-05-14T17:51:54.017Z,38.30
2019-05-14T17:57:58.917Z,37.70
2019-05-14T18:03:59.426Z,34.50
2019-05-14T18:10:01.161Z,30.60
2019-05-14T18:16:03.003Z,32.90
2019-05-14T18:22:04.552Z,36.20
2019-05-14T18:28:09.078Z,41.20
2019-05-14T18:34:09.416Z,42.00
2019-05-14T18:40:11.353Z,42.50
2019-05-14T18:46:13.054Z,48.10
2019-05-14T18:52:18.214Z,50.60
2019-05-14T18:58:21.752Z,52.70
2019-05-14T19:04:23.220Z,55.70
2019-05-14T19:10:25.013Z,58.70
2019-05-14T19:16:28.809Z,61.80
2019-05-14T19:22:30.748Z,69.40
2019-05-14T19:28:33.500Z,73.40
2019-05-14T19:34:38.008Z,74.40
2019-05-14T19:40:39.316Z,76.90
2019-05-14T19:46:40.886Z,79.60
2019-05-14T19:52:42.639Z,79.20
2019-05-14T19:58:45.077Z,82.70
2019-05-14T20:04:46.642Z,84.50
2019-05-14T20:10:49.673Z,85.20
2019-05-14T20:16:51.570Z,86.50
2019-05-14T20:22:53.256Z,87.80
2019-05-14T20:28:55.375Z,89.40
2019-05-14T20:34:58.064Z,89.30
2019-05-14T20:40:59.637Z,90.00
2019-05-14T20:47:09.129Z,90.70
2019-05-14T20:53:12.061Z,90.80
2019-05-14T20:59:13.586Z,90.80
2019-05-14T21:05:15.342Z,90.80
2019-05-14T21:11:18.889Z,91.10
2019-05-14T21:17:20.157Z,91.50
2019-05-14T21:23:22.764Z,91.90
2019-05-14T21:29:24.659Z,91.70
2019-05-14T21:35:26.266Z,92.50
2019-05-14T21:41:29.015Z,91.80
2019-05-14T21:47:30.843Z,91.20
2019-05-14T21:53:38.197Z,91.70
2019-05-14T21:59:38.993Z,91.60
2019-05-14T22:05:40.757Z,91.50
2019-05-14T22:11:42.506Z,91.80
2019-05-14T22:17:44.007Z,92.00
2019-05-14T22:23:45.456Z,92.10
2019-05-14T22:29:48.820Z,92.20
2019-05-14T22:35:50.456Z,92.40
2019-05-14T22:41:53.153Z,92.70
2019-05-14T22:47:54.834Z,92.90
2019-05-14T22:53:58.939Z,93.40
2019-05-14T23:00:00.156Z,93.50
2019-05-14T23:06:01.812Z,93.50
2019-05-14T23:12:03.444Z,93.70
2019-05-14T23:18:05.603Z,94.90
2019-05-14T23:24:09.175Z,95.10
2019-05-14T23:30:10.950Z,94.50
2019-05-14T23:36:12.638Z,94.40
2019-05-14T23:42:14.158Z,94.80
2019-05-14T23:48:15.635Z,95.10
2019-05-14T23:54:18.240Z,95.30
